sensor_id;sensor_type;location;lat;lon;timestamp;pressure;altitude;pressure_sealevel;temperature;humidity
19811;BME280;10065;49.632;8.346;2022-11-20T00:00:28;100201.06;;;6.45;78.36
19811;BME280;10065;49.632;8.346;2022-11-20T00:02:57;100198.44;;;6.45;78.45
19811;BME280;10065;49.632;8.346;2022-11-20T00:05:24;100212.13;;;6.38;78.33
19811;BME280;10065;49.632;8.346;2022-11-20T00:07:52;100198.22;;;6.36;78.59
19811;BME280;10065;49.632;8.346;2022-11-20T00:10:20;100196.31;;;6.38;78.58
19811;BME280;10065;49.632;8.346;2022-11-20T00:12:48;100197.16;;;6.39;78.70
19811;BME280;10065;49.632;8.346;2022-11-20T00:15:16;100189.69;;;6.44;78.37
19811;BME280;10065;49.632;8.346;2022-11-20T00:17:45;100197.66;;;6.54;78.08
19811;BME280;10065;49.632;8.346;2022-11-20T00:20:14;100200.47;;;6.62;77.41
19811;BME280;10065;49.632;8.346;2022-11-20T00:22:42;100202.16;;;6.63;76.96
19811;BME280;10065;49.632;8.346;2022-11-20T00:25:10;100213.22;;;6.57;77.09
19811;BME280;10065;49.632;8.346;2022-11-20T00:27:37;100207.09;;;6.56;77.56
19811;BME280;10065;49.632;8.346;2022-11-20T00:30:06;100200.03;;;6.57;78.01
19811;BME280;10065;49.632;8.346;2022-11-20T00:32:40;100203.56;;;6.67;77.63
19811;BME280;10065;49.632;8.346;2022-11-20T00:35:08;100203.13;;;6.62;77.17
19811;BME280;10065;49.632;8.346;2022-11-20T00:37:37;100190.41;;;6.67;77.37
19811;BME280;10065;49.632;8.346;2022-11-20T00:40:06;100210.91;;;6.63;77.40
19811;BME280;10065;49.632;8.346;2022-11-20T00:42:34;100203.00;;;6.63;77.81
19811;BME280;10065;49.632;8.346;2022-11-20T00:45:02;100213.72;;;6.71;77.20
19811;BME280;10065;49.632;8.346;2022-11-20T00:47:30;100206.28;;;6.76;76.52
19811;BME280;10065;49.632;8.346;2022-11-20T00:49:58;100204.00;;;6.72;76.75
19811;BME280;10065;49.632;8.346;2022-11-20T00:52:26;100205.69;;;6.73;76.64
19811;BME280;10065;49.632;8.346;2022-11-20T00:54:55;100206.34;;;6.65;76.55
19811;BME280;10065;49.632;8.346;2022-11-20T00:57:22;100208.38;;;6.62;76.52
19811;BME280;10065;49.632;8.346;2022-11-20T00:59:50;100198.88;;;6.70;76.46
19811;BME280;10065;49.632;8.346;2022-11-20T01:02:18;100194.91;;;6.76;76.00
19811;BME280;10065;49.632;8.346;2022-11-20T01:04:46;100205.16;;;6.79;75.89
19811;BME280;10065;49.632;8.346;2022-11-20T01:07:14;100200.41;;;6.73;75.83
19811;BME280;10065;49.632;8.346;2022-11-20T01:09:42;100192.91;;;6.68;75.84
19811;BME280;10065;49.632;8.346;2022-11-20T01:12:11;100180.53;;;6.59;77.02
19811;BME280;10065;49.632;8.346;2022-11-20T01:14:39;100178.69;;;6.60;76.61
19811;BME280;10065;49.632;8.346;2022-11-20T01:17:06;100172.63;;;6.69;76.88
19811;BME280;10065;49.632;8.346;2022-11-20T01:19:34;100168.56;;;6.55;76.56
19811;BME280;10065;49.632;8.346;2022-11-20T01:22:02;100173.81;;;6.34;78.37
19811;BME280;10065;49.632;8.346;2022-11-20T01:24:29;100180.56;;;6.27;78.97
19811;BME280;10065;49.632;8.346;2022-11-20T01:26:57;100183.38;;;6.35;79.64
19811;BME280;10065;49.632;8.346;2022-11-20T01:29:26;100182.44;;;6.36;80.08
19811;BME280;10065;49.632;8.346;2022-11-20T01:31:54;100178.25;;;6.34;80.51
19811;BME280;10065;49.632;8.346;2022-11-20T01:34:22;100179.78;;;6.36;80.33
19811;BME280;10065;49.632;8.346;2022-11-20T01:36:52;100179.88;;;6.46;79.48
19811;BME280;10065;49.632;8.346;2022-11-20T01:39:21;100178.50;;;6.52;78.95
19811;BME280;10065;49.632;8.346;2022-11-20T01:41:51;100175.44;;;6.47;78.85
19811;BME280;10065;49.632;8.346;2022-11-20T01:44:51;100177.88;;;6.38;79.88
19811;BME280;10065;49.632;8.346;2022-11-20T01:47:23;100180.09;;;6.43;80.38
19811;BME280;10065;49.632;8.346;2022-11-20T01:49:56;100186.22;;;6.43;80.56
19811;BME280;10065;49.632;8.346;2022-11-20T01:52:30;100190.22;;;6.38;80.81
19811;BME280;10065;49.632;8.346;2022-11-20T01:55:02;100191.28;;;6.35;81.20
19811;BME280;10065;49.632;8.346;2022-11-20T01:57:33;100185.78;;;6.38;80.93
19811;BME280;10065;49.632;8.346;2022-11-20T02:00:05;100182.44;;;6.36;81.20
19811;BME280;10065;49.632;8.346;2022-11-20T02:02:34;100179.09;;;6.34;80.52
19811;BME280;10065;49.632;8.346;2022-11-20T02:05:09;100176.00;;;6.29;80.31
19811;BME280;10065;49.632;8.346;2022-11-20T02:07:40;100167.53;;;6.47;79.56
19811;BME280;10065;49.632;8.346;2022-11-20T02:10:08;100166.94;;;6.43;78.50
19811;BME280;10065;49.632;8.346;2022-11-20T02:12:35;100168.53;;;6.34;79.10
19811;BME280;10065;49.632;8.346;2022-11-20T02:15:22;100179.34;;;6.31;79.67
19811;BME280;10065;49.632;8.346;2022-11-20T02:17:55;100177.03;;;6.38;79.98
19811;BME280;10065;49.632;8.346;2022-11-20T02:20:23;100169.44;;;6.45;79.73
19811;BME280;10065;49.632;8.346;2022-11-20T02:22:55;100164.50;;;6.51;79.64
19811;BME280;10065;49.632;8.346;2022-11-20T02:25:27;100172.41;;;6.51;78.95
19811;BME280;10065;49.632;8.346;2022-11-20T02:27:56;100170.28;;;6.45;80.12
19811;BME280;10065;49.632;8.346;2022-11-20T02:30:24;100164.06;;;6.46;79.92
19811;BME280;10065;49.632;8.346;2022-11-20T02:32:52;100171.13;;;6.46;79.64
19811;BME280;10065;49.632;8.346;2022-11-20T02:35:44;100171.66;;;6.39;79.96
19811;BME280;10065;49.632;8.346;2022-11-20T02:38:13;100164.00;;;6.36;80.70
19811;BME280;10065;49.632;8.346;2022-11-20T02:40:42;100152.88;;;6.54;79.83
19811;BME280;10065;49.632;8.346;2022-11-20T02:43:10;100152.69;;;6.66;79.04
19811;BME280;10065;49.632;8.346;2022-11-20T02:45:38;100155.75;;;6.71;78.26
19811;BME280;10065;49.632;8.346;2022-11-20T02:48:06;100153.88;;;6.83;77.41
19811;BME280;10065;49.632;8.346;2022-11-20T02:50:36;100149.13;;;6.77;77.13
19811;BME280;10065;49.632;8.346;2022-11-20T02:53:04;100145.25;;;6.81;77.30
19811;BME280;10065;49.632;8.346;2022-11-20T02:55:32;100147.34;;;6.87;76.92
19811;BME280;10065;49.632;8.346;2022-11-20T02:58:02;100148.50;;;6.94;76.58
19811;BME280;10065;49.632;8.346;2022-11-20T03:00:30;100149.69;;;6.80;77.17
19811;BME280;10065;49.632;8.346;2022-11-20T03:02:58;100153.22;;;6.70;77.61
19811;BME280;10065;49.632;8.346;2022-11-20T03:05:26;100152.34;;;6.60;78.33
19811;BME280;10065;49.632;8.346;2022-11-20T03:07:53;100151.38;;;6.61;77.81
19811;BME280;10065;49.632;8.346;2022-11-20T03:10:21;100142.19;;;6.76;77.51
19811;BME280;10065;49.632;8.346;2022-11-20T03:12:53;100150.94;;;6.86;76.48
19811;BME280;10065;49.632;8.346;2022-11-20T03:15:23;100150.78;;;6.78;76.88
19811;BME280;10065;49.632;8.346;2022-11-20T03:17:53;100161.53;;;6.65;77.58
19811;BME280;10065;49.632;8.346;2022-11-20T03:20:21;100163.22;;;6.66;78.03
19811;BME280;10065;49.632;8.346;2022-11-20T03:22:49;100157.19;;;6.55;78.55
19811;BME280;10065;49.632;8.346;2022-11-20T03:25:17;100160.59;;;6.46;78.96
19811;BME280;10065;49.632;8.346;2022-11-20T03:27:45;100161.44;;;6.46;79.56
19811;BME280;10065;49.632;8.346;2022-11-20T03:30:13;100153.94;;;6.41;79.51
19811;BME280;10065;49.632;8.346;2022-11-20T03:32:42;100156.59;;;6.51;79.56
19811;BME280;10065;49.632;8.346;2022-11-20T03:35:10;100156.34;;;6.54;79.32
19811;BME280;10065;49.632;8.346;2022-11-20T03:37:38;100152.56;;;6.47;78.92
19811;BME280;10065;49.632;8.346;2022-11-20T03:40:07;100160.66;;;6.55;79.15
19811;BME280;10065;49.632;8.346;2022-11-20T03:42:34;100155.69;;;6.62;79.04
19811;BME280;10065;49.632;8.346;2022-11-20T03:45:15;100145.69;;;6.56;79.03
19811;BME280;10065;49.632;8.346;2022-11-20T03:47:45;100148.69;;;6.51;79.13
19811;BME280;10065;49.632;8.346;2022-11-20T03:50:13;100157.91;;;6.57;79.04
19811;BME280;10065;49.632;8.346;2022-11-20T03:52:42;100154.28;;;6.58;79.40
19811;BME280;10065;49.632;8.346;2022-11-20T03:55:11;100148.31;;;6.56;80.09
19811;BME280;10065;49.632;8.346;2022-11-20T03:57:39;100154.97;;;6.60;79.72
19811;BME280;10065;49.632;8.346;2022-11-20T04:00:08;100146.56;;;6.66;79.62
19811;BME280;10065;49.632;8.346;2022-11-20T04:02:35;100146.50;;;6.77;79.40
19811;BME280;10065;49.632;8.346;2022-11-20T04:05:05;100137.88;;;6.75;79.68
19811;BME280;10065;49.632;8.346;2022-11-20T04:07:34;100134.72;;;6.81;78.65
19811;BME280;10065;49.632;8.346;2022-11-20T04:10:02;100123.91;;;6.84;79.10
19811;BME280;10065;49.632;8.346;2022-11-20T04:12:32;100129.56;;;6.79;78.60
19811;BME280;10065;49.632;8.346;2022-11-20T04:15:00;100129.06;;;6.86;78.66
19811;BME280;10065;49.632;8.346;2022-11-20T04:17:28;100123.66;;;6.97;77.41
19811;BME280;10065;49.632;8.346;2022-11-20T04:19:55;100120.06;;;6.98;76.92
19811;BME280;10065;49.632;8.346;2022-11-20T04:22:24;100123.91;;;6.84;77.39
19811;BME280;10065;49.632;8.346;2022-11-20T04:24:52;100126.88;;;6.70;78.42
19811;BME280;10065;49.632;8.346;2022-11-20T04:27:20;100127.41;;;6.64;79.36
19811;BME280;10065;49.632;8.346;2022-11-20T04:29:48;100124.06;;;6.62;79.41
19811;BME280;10065;49.632;8.346;2022-11-20T04:32:16;100129.63;;;6.59;79.29
19811;BME280;10065;49.632;8.346;2022-11-20T04:34:43;100124.34;;;6.59;78.82
19811;BME280;10065;49.632;8.346;2022-11-20T04:37:11;100117.31;;;6.69;78.77
19811;BME280;10065;49.632;8.346;2022-11-20T04:39:40;100125.53;;;6.75;78.05
19811;BME280;10065;49.632;8.346;2022-11-20T04:42:08;100119.94;;;6.69;77.67
19811;BME280;10065;49.632;8.346;2022-11-20T04:44:53;100111.91;;;6.70;77.45
19811;BME280;10065;49.632;8.346;2022-11-20T04:47:21;100123.28;;;6.71;77.74
19811;BME280;10065;49.632;8.346;2022-11-20T04:49:49;100123.28;;;6.71;78.04
19811;BME280;10065;49.632;8.346;2022-11-20T04:52:16;100111.34;;;6.67;78.60
19811;BME280;10065;49.632;8.346;2022-11-20T04:54:45;100105.56;;;6.73;78.13
19811;BME280;10065;49.632;8.346;2022-11-20T04:57:14;100107.59;;;6.69;78.80
19811;BME280;10065;49.632;8.346;2022-11-20T04:59:43;100109.41;;;6.69;78.67
19811;BME280;10065;49.632;8.346;2022-11-20T05:02:11;100123.09;;;6.63;78.60
19811;BME280;10065;49.632;8.346;2022-11-20T05:04:38;100114.38;;;6.62;79.67
19811;BME280;10065;49.632;8.346;2022-11-20T05:07:06;100110.47;;;6.57;79.63
19811;BME280;10065;49.632;8.346;2022-11-20T05:09:34;100102.38;;;6.49;79.63
19811;BME280;10065;49.632;8.346;2022-11-20T05:12:04;100105.16;;;6.47;79.78
19811;BME280;10065;49.632;8.346;2022-11-20T05:14:32;100104.91;;;6.60;79.51
19811;BME280;10065;49.632;8.346;2022-11-20T05:16:59;100097.19;;;6.58;79.52
19811;BME280;10065;49.632;8.346;2022-11-20T05:19:27;100095.56;;;6.67;79.32
19811;BME280;10065;49.632;8.346;2022-11-20T05:21:56;100096.16;;;6.80;78.98
19811;BME280;10065;49.632;8.346;2022-11-20T05:24:23;100102.25;;;6.80;77.90
19811;BME280;10065;49.632;8.346;2022-11-20T05:26:51;100111.41;;;6.86;78.19
19811;BME280;10065;49.632;8.346;2022-11-20T05:29:20;100099.66;;;6.90;78.38
19811;BME280;10065;49.632;8.346;2022-11-20T05:31:48;100099.41;;;6.93;78.39
19811;BME280;10065;49.632;8.346;2022-11-20T05:34:16;100104.06;;;6.80;79.17
19811;BME280;10065;49.632;8.346;2022-11-20T05:36:44;100107.47;;;6.71;79.44
19811;BME280;10065;49.632;8.346;2022-11-20T05:39:13;100114.66;;;6.69;79.85
19811;BME280;10065;49.632;8.346;2022-11-20T05:41:41;100105.50;;;6.63;80.18
19811;BME280;10065;49.632;8.346;2022-11-20T05:44:10;100092.59;;;6.60;80.58
19811;BME280;10065;49.632;8.346;2022-11-20T05:46:39;100087.09;;;6.73;79.70
19811;BME280;10065;49.632;8.346;2022-11-20T05:49:06;100075.34;;;6.77;79.77
19811;BME280;10065;49.632;8.346;2022-11-20T05:51:34;100101.00;;;6.75;79.58
19811;BME280;10065;49.632;8.346;2022-11-20T05:54:02;100104.13;;;6.69;80.28
19811;BME280;10065;49.632;8.346;2022-11-20T05:56:30;100108.97;;;6.64;81.15
19811;BME280;10065;49.632;8.346;2022-11-20T05:58:57;100100.22;;;6.63;81.64
19811;BME280;10065;49.632;8.346;2022-11-20T06:01:25;100104.34;;;6.77;81.13
19811;BME280;10065;49.632;8.346;2022-11-20T06:03:54;100098.91;;;6.78;80.25
19811;BME280;10065;49.632;8.346;2022-11-20T06:06:22;100097.91;;;6.70;80.00
19811;BME280;10065;49.632;8.346;2022-11-20T06:08:51;100085.44;;;6.72;80.30
19811;BME280;10065;49.632;8.346;2022-11-20T06:11:19;100093.91;;;6.75;79.71
19811;BME280;10065;49.632;8.346;2022-11-20T06:13:48;100091.25;;;6.66;80.17
19811;BME280;10065;49.632;8.346;2022-11-20T06:16:18;100079.75;;;6.67;79.91
19811;BME280;10065;49.632;8.346;2022-11-20T06:18:47;100096.94;;;6.71;79.86
19811;BME280;10065;49.632;8.346;2022-11-20T06:21:18;100092.78;;;6.78;79.70
19811;BME280;10065;49.632;8.346;2022-11-20T06:23:46;100094.91;;;6.84;79.65
19811;BME280;10065;49.632;8.346;2022-11-20T06:26:16;100090.06;;;6.89;79.69
19811;BME280;10065;49.632;8.346;2022-11-20T06:28:44;100084.97;;;6.97;79.43
19811;BME280;10065;49.632;8.346;2022-11-20T06:31:13;100094.91;;;6.84;79.64
19811;BME280;10065;49.632;8.346;2022-11-20T06:33:42;100097.81;;;6.81;79.72
19811;BME280;10065;49.632;8.346;2022-11-20T06:36:11;100093.59;;;6.69;80.13
19811;BME280;10065;49.632;8.346;2022-11-20T06:38:41;100091.16;;;6.77;79.94
19811;BME280;10065;49.632;8.346;2022-11-20T06:41:11;100097.66;;;6.73;80.23
19811;BME280;10065;49.632;8.346;2022-11-20T06:43:39;100084.06;;;6.68;80.67
19811;BME280;10065;49.632;8.346;2022-11-20T06:46:09;100091.41;;;6.74;81.03
19811;BME280;10065;49.632;8.346;2022-11-20T06:48:37;100093.09;;;6.75;80.44
19811;BME280;10065;49.632;8.346;2022-11-20T06:51:05;100095.88;;;6.83;79.76
19811;BME280;10065;49.632;8.346;2022-11-20T06:53:33;100093.81;;;6.87;79.27
19811;BME280;10065;49.632;8.346;2022-11-20T06:56:03;100089.69;;;6.94;78.61
19811;BME280;10065;49.632;8.346;2022-11-20T06:58:32;100094.53;;;6.98;77.90
19811;BME280;10065;49.632;8.346;2022-11-20T07:01:01;100094.25;;;6.92;78.00
19811;BME280;10065;49.632;8.346;2022-11-20T07:03:30;100095.09;;;6.92;78.25
19811;BME280;10065;49.632;8.346;2022-11-20T07:06:00;100095.88;;;6.83;78.94
19811;BME280;10065;49.632;8.346;2022-11-20T07:08:28;100095.34;;;6.89;79.00
19811;BME280;10065;49.632;8.346;2022-11-20T07:10:57;100100.25;;;7.03;78.57
19811;BME280;10065;49.632;8.346;2022-11-20T07:13:28;100102.91;;;7.13;77.82
19811;BME280;10065;49.632;8.346;2022-11-20T07:15:59;100114.53;;;7.01;78.18
19811;BME280;10065;49.632;8.346;2022-11-20T07:18:26;100104.53;;;6.95;79.09
19811;BME280;10065;49.632;8.346;2022-11-20T07:20:54;100113.25;;;6.95;79.20
19811;BME280;10065;49.632;8.346;2022-11-20T07:23:22;100110.59;;;6.86;79.99
19811;BME280;10065;49.632;8.346;2022-11-20T07:25:50;100107.56;;;6.90;80.32
19811;BME280;10065;49.632;8.346;2022-11-20T07:28:17;100107.31;;;6.93;79.97
19811;BME280;10065;49.632;8.346;2022-11-20T07:30:50;100110.91;;;6.92;80.24
19811;BME280;10065;49.632;8.346;2022-11-20T07:33:19;100107.25;;;6.84;80.47
19811;BME280;10065;49.632;8.346;2022-11-20T07:35:47;100114.47;;;6.82;80.87
19811;BME280;10065;49.632;8.346;2022-11-20T07:38:14;100120.16;;;6.87;80.96
19811;BME280;10065;49.632;8.346;2022-11-20T07:40:42;100118.66;;;6.84;81.13
19811;BME280;10065;49.632;8.346;2022-11-20T07:43:10;100122.28;;;6.93;80.98
19811;BME280;10065;49.632;8.346;2022-11-20T07:45:38;100126.19;;;6.98;80.45
19811;BME280;10065;49.632;8.346;2022-11-20T07:48:07;100128.09;;;6.96;80.39
19811;BME280;10065;49.632;8.346;2022-11-20T07:50:35;100125.09;;;7.01;80.42
19811;BME280;10065;49.632;8.346;2022-11-20T07:53:03;100130.66;;;7.07;79.74
19811;BME280;10065;49.632;8.346;2022-11-20T07:55:32;100135.63;;;7.01;79.27
19811;BME280;10065;49.632;8.346;2022-11-20T07:58:04;100141.03;;;6.99;79.48
19811;BME280;10065;49.632;8.346;2022-11-20T08:00:32;100144.78;;;7.06;79.47
19811;BME280;10065;49.632;8.346;2022-11-20T08:03:03;100148.97;;;7.09;78.93
19811;BME280;10065;49.632;8.346;2022-11-20T08:05:39;100145.09;;;7.13;78.92
19811;BME280;10065;49.632;8.346;2022-11-20T08:08:07;100145.94;;;7.13;79.20
19811;BME280;10065;49.632;8.346;2022-11-20T08:10:34;100143.13;;;7.05;80.25
19811;BME280;10065;49.632;8.346;2022-11-20T08:13:04;100145.34;;;7.00;80.33
19811;BME280;10065;49.632;8.346;2022-11-20T08:15:53;100141.44;;;7.04;80.32
19811;BME280;10065;49.632;8.346;2022-11-20T08:18:20;100141.44;;;7.04;80.35
19811;BME280;10065;49.632;8.346;2022-11-20T08:21:02;100148.41;;;7.05;80.61
19811;BME280;10065;49.632;8.346;2022-11-20T08:23:30;100154.13;;;7.10;80.11
19811;BME280;10065;49.632;8.346;2022-11-20T08:25:58;100144.00;;;7.15;79.56
19811;BME280;10065;49.632;8.346;2022-11-20T08:28:26;100150.13;;;7.26;78.90
19811;BME280;10065;49.632;8.346;2022-11-20T08:30:59;100159.59;;;7.28;78.28
19811;BME280;10065;49.632;8.346;2022-11-20T08:33:27;100156.53;;;7.33;77.98
19811;BME280;10065;49.632;8.346;2022-11-20T08:36:00;100155.19;;;7.38;77.39
19811;BME280;10065;49.632;8.346;2022-11-20T08:38:28;100163.06;;;7.29;77.62
19811;BME280;10065;49.632;8.346;2022-11-20T08:40:57;100167.09;;;7.33;78.20
19811;BME280;10065;49.632;8.346;2022-11-20T08:43:42;100169.34;;;7.37;78.45
19811;BME280;10065;49.632;8.346;2022-11-20T08:46:10;100170.44;;;7.35;78.58
19811;BME280;10065;49.632;8.346;2022-11-20T08:48:38;100166.25;;;7.32;78.46
19811;BME280;10065;49.632;8.346;2022-11-20T08:51:06;100173.81;;;7.46;77.92
19811;BME280;10065;49.632;8.346;2022-11-20T08:53:34;100169.88;;;7.41;77.85
19811;BME280;10065;49.632;8.346;2022-11-20T08:56:02;100177.63;;;7.33;78.40
19811;BME280;10065;49.632;8.346;2022-11-20T08:58:30;100183.50;;;7.36;78.92
19811;BME280;10065;49.632;8.346;2022-11-20T09:01:18;100183.38;;;7.47;78.41
19811;BME280;10065;49.632;8.346;2022-11-20T09:03:46;100185.31;;;7.45;77.91
19811;BME280;10065;49.632;8.346;2022-11-20T09:06:16;100181.84;;;7.45;78.12
19811;BME280;10065;49.632;8.346;2022-11-20T09:08:44;100172.69;;;7.49;78.33
19811;BME280;10065;49.632;8.346;2022-11-20T09:11:11;100182.84;;;7.53;78.05
19811;BME280;10065;49.632;8.346;2022-11-20T09:13:39;100174.34;;;7.50;77.90
19811;BME280;10065;49.632;8.346;2022-11-20T09:16:08;100188.22;;;7.42;78.47
19811;BME280;10065;49.632;8.346;2022-11-20T09:18:37;100177.09;;;7.39;79.10
19811;BME280;10065;49.632;8.346;2022-11-20T09:21:08;100175.59;;;7.46;78.88
19811;BME280;10065;49.632;8.346;2022-11-20T09:23:38;100181.59;;;7.57;77.84
19811;BME280;10065;49.632;8.346;2022-11-20T09:26:09;100175.78;;;7.64;77.05
19811;BME280;10065;49.632;8.346;2022-11-20T09:28:38;100184.78;;;7.61;77.06
19811;BME280;10065;49.632;8.346;2022-11-20T09:31:07;100187.69;;;7.58;77.58
19811;BME280;10065;49.632;8.346;2022-11-20T09:33:35;100188.41;;;7.70;77.25
19811;BME280;10065;49.632;8.346;2022-11-20T09:36:04;100187.44;;;7.61;77.11
19811;BME280;10065;49.632;8.346;2022-11-20T09:38:31;100195.44;;;7.50;77.45
19811;BME280;10065;49.632;8.346;2022-11-20T09:41:03;100194.59;;;7.40;78.17
19811;BME280;10065;49.632;8.346;2022-11-20T09:43:46;100199.31;;;7.36;78.40
19811;BME280;10065;49.632;8.346;2022-11-20T09:46:24;100195.16;;;7.43;78.50
19811;BME280;10065;49.632;8.346;2022-11-20T09:49:05;100187.81;;;7.56;78.12
19811;BME280;10065;49.632;8.346;2022-11-20T09:51:45;100193.53;;;7.52;77.70
19811;BME280;10065;49.632;8.346;2022-11-20T09:54:18;100186.44;;;7.52;78.12
19811;BME280;10065;49.632;8.346;2022-11-20T09:56:51;100196.88;;;7.54;78.08
19811;BME280;10065;49.632;8.346;2022-11-20T09:59:32;100175.06;;;7.62;77.89
19811;BME280;10065;49.632;8.346;2022-11-20T10:02:11;100177.59;;;7.73;78.21
19811;BME280;10065;49.632;8.346;2022-11-20T10:04:48;100187.47;;;7.80;77.65
19811;BME280;10065;49.632;8.346;2022-11-20T10:07:24;100176.22;;;7.88;76.40
19811;BME280;10065;49.632;8.346;2022-11-20T10:10:00;100175.13;;;7.90;76.06
19811;BME280;10065;49.632;8.346;2022-11-20T10:12:37;100178.44;;;7.92;76.26
19811;BME280;10065;49.632;8.346;2022-11-20T10:15:25;100171.22;;;7.85;76.32
19811;BME280;10065;49.632;8.346;2022-11-20T10:18:07;100171.34;;;7.83;76.91
19811;BME280;10065;49.632;8.346;2022-11-20T10:20:45;100163.00;;;7.78;78.01
19811;BME280;10065;49.632;8.346;2022-11-20T10:23:28;100170.25;;;7.86;78.09
19811;BME280;10065;49.632;8.346;2022-11-20T10:26:02;100161.63;;;7.84;78.38
19811;BME280;10065;49.632;8.346;2022-11-20T10:28:45;100166.38;;;8.00;77.92
19811;BME280;10065;49.632;8.346;2022-11-20T10:31:30;100169.41;;;8.05;77.63
19811;BME280;10065;49.632;8.346;2022-11-20T10:34:02;100162.19;;;8.07;77.51
19811;BME280;10065;49.632;8.346;2022-11-20T10:36:42;100158.84;;;8.05;77.86
19811;BME280;10065;49.632;8.346;2022-11-20T10:39:17;100158.97;;;8.13;77.88
19811;BME280;10065;49.632;8.346;2022-11-20T10:41:50;100160.94;;;8.11;78.13
19811;BME280;10065;49.632;8.346;2022-11-20T10:44:22;100157.19;;;8.04;78.42
19811;BME280;10065;49.632;8.346;2022-11-20T10:47:13;100146.06;;;8.10;78.73
19811;BME280;10065;49.632;8.346;2022-11-20T10:49:43;100153.00;;;8.20;78.62
19811;BME280;10065;49.632;8.346;2022-11-20T10:52:29;100151.44;;;8.27;78.03
19811;BME280;10065;49.632;8.346;2022-11-20T10:55:06;100150.34;;;8.30;77.37
19811;BME280;10065;49.632;8.346;2022-11-20T10:57:48;100147.84;;;8.28;77.40
19811;BME280;10065;49.632;8.346;2022-11-20T11:00:20;100146.34;;;8.26;77.68
19811;BME280;10065;49.632;8.346;2022-11-20T11:02:49;100150.22;;;8.12;77.23
19811;BME280;10065;49.632;8.346;2022-11-20T11:05:24;100147.72;;;8.11;77.86
19811;BME280;10065;49.632;8.346;2022-11-20T11:07:55;100148.56;;;8.11;78.26
19811;BME280;10065;49.632;8.346;2022-11-20T11:10:27;100144.41;;;8.09;77.76
19811;BME280;10065;49.632;8.346;2022-11-20T11:12:58;100131.03;;;8.01;78.91
19811;BME280;10065;49.632;8.346;2022-11-20T11:15:29;100128.69;;;8.07;79.14
19811;BME280;10065;49.632;8.346;2022-11-20T11:17:57;100129.34;;;8.19;79.87
19811;BME280;10065;49.632;8.346;2022-11-20T11:20:25;100116.84;;;8.21;80.62
19811;BME280;10065;49.632;8.346;2022-11-20T11:22:55;100107.38;;;8.47;79.79
19811;BME280;10065;49.632;8.346;2022-11-20T11:25:27;100102.88;;;8.67;79.12
19811;BME280;10065;49.632;8.346;2022-11-20T11:27:59;100099.31;;;8.86;77.96
19811;BME280;10065;49.632;8.346;2022-11-20T11:30:29;100106.16;;;9.06;77.43
19811;BME280;10065;49.632;8.346;2022-11-20T11:33:05;100111.53;;;9.41;76.51
19811;BME280;10065;49.632;8.346;2022-11-20T11:35:44;100111.69;;;9.40;75.11
19811;BME280;10065;49.632;8.346;2022-11-20T11:38:29;100102.44;;;9.26;75.62
19811;BME280;10065;49.632;8.346;2022-11-20T11:40:58;100100.03;;;9.33;76.73
19811;BME280;10065;49.632;8.346;2022-11-20T11:43:28;100106.34;;;9.50;76.40
19811;BME280;10065;49.632;8.346;2022-11-20T11:46:40;100094.38;;;9.46;75.43
19811;BME280;10065;49.632;8.346;2022-11-20T11:49:17;100095.03;;;9.30;75.99
19811;BME280;10065;49.632;8.346;2022-11-20T11:51:56;100093.72;;;9.16;76.77
19811;BME280;10065;49.632;8.346;2022-11-20T11:54:32;100097.66;;;9.12;77.09
19811;BME280;10065;49.632;8.346;2022-11-20T11:57:07;100086.00;;;9.05;77.38
19811;BME280;10065;49.632;8.346;2022-11-20T11:59:49;100090.09;;;8.90;78.50
19811;BME280;10065;49.632;8.346;2022-11-20T12:02:29;100085.78;;;8.89;78.35
19811;BME280;10065;49.632;8.346;2022-11-20T12:05:05;100081.88;;;8.93;78.00
19811;BME280;10065;49.632;8.346;2022-11-20T12:07:39;100082.16;;;8.90;78.07
19811;BME280;10065;49.632;8.346;2022-11-20T12:10:20;100074.81;;;8.84;77.89
19811;BME280;10065;49.632;8.346;2022-11-20T12:12:53;100071.94;;;8.77;78.81
19811;BME280;10065;49.632;8.346;2022-11-20T12:15:30;100074.59;;;8.77;79.33
19811;BME280;10065;49.632;8.346;2022-11-20T12:18:00;100070.63;;;8.54;80.78
19811;BME280;10065;49.632;8.346;2022-11-20T12:20:33;100065.41;;;8.44;82.32
19811;BME280;10065;49.632;8.346;2022-11-20T12:23:09;100061.63;;;8.47;82.77
19811;BME280;10065;49.632;8.346;2022-11-20T12:25:48;100062.44;;;8.47;83.32
19811;BME280;10065;49.632;8.346;2022-11-20T12:28:29;100058.97;;;8.47;83.85
19811;BME280;10065;49.632;8.346;2022-11-20T12:31:18;100051.59;;;8.50;83.98
19811;BME280;10065;49.632;8.346;2022-11-20T12:34:04;100051.00;;;8.56;84.29
19811;BME280;10065;49.632;8.346;2022-11-20T12:36:42;100045.56;;;8.67;83.89
19811;BME280;10065;49.632;8.346;2022-11-20T12:39:22;100043.28;;;8.73;83.63
19811;BME280;10065;49.632;8.346;2022-11-20T12:42:05;100043.97;;;8.75;83.54
19811;BME280;10065;49.632;8.346;2022-11-20T12:45:21;100039.28;;;8.68;84.32
19811;BME280;10065;49.632;8.346;2022-11-20T12:48:02;100048.28;;;8.76;84.29
19811;BME280;10065;49.632;8.346;2022-11-20T12:50:46;100049.72;;;8.70;85.52
19811;BME280;10065;49.632;8.346;2022-11-20T12:53:39;100041.94;;;8.68;86.13
19811;BME280;10065;49.632;8.346;2022-11-20T12:56:19;100044.16;;;8.63;86.90
19811;BME280;10065;49.632;8.346;2022-11-20T12:58:59;100043.88;;;8.66;87.29
19811;BME280;10065;49.632;8.346;2022-11-20T13:01:47;100038.44;;;8.68;87.08
19811;BME280;10065;49.632;8.346;2022-11-20T13:04:26;100039.28;;;8.68;87.41
19811;BME280;10065;49.632;8.346;2022-11-20T13:07:00;100036.19;;;8.73;87.51
19811;BME280;10065;49.632;8.346;2022-11-20T13:09:29;100032.72;;;8.73;88.02
19811;BME280;10065;49.632;8.346;2022-11-20T13:12:02;100029.66;;;8.77;88.24
19811;BME280;10065;49.632;8.346;2022-11-20T13:14:35;100018.47;;;8.83;87.74
19811;BME280;10065;49.632;8.346;2022-11-20T13:17:10;100029.41;;;8.88;87.84
19811;BME280;10065;49.632;8.346;2022-11-20T13:19:39;100019.25;;;8.93;88.06
19811;BME280;10065;49.632;8.346;2022-11-20T13:22:09;100015.16;;;8.99;88.50